Hilo, HI (96720)

5:37 AM HST on August 22, 2014 (GMT -1000)
Hilo International | Change Station
CLOSE
Current Station
Airport
Location: Hilo,
Elevation: 36 ft
Nearby Weather Stations

Elev 36 ft 19.72 °N, 155.05 °W | Updated 44 minutes ago

Mostly Cloudy
Mostly Cloudy
73 °F
Feels Like 73 °F
N
5
Wind Variable Wind from West

Today
High -- | Low -- °F
--% Chance of Precip.
Yesterday
High -- | Low -- °F
Precip. -- in
6:02 AM 6:43 PM
Waning Crescent, 8% visible
Pressure 29.98 in
Visibility 10.0 miles
Clouds Scattered Clouds 4500 ft
Mostly Cloudy 5500 ft
Dew Point 70 °F
Humidity 90%
Rainfall 0.07 in
Snow Depth Not available.
UV 0 out of 12
Pollen Not available.
PM2.5 Good
Flu Activity Not available.
METAR PHTO 221453Z 27004KT 10SM SCT045 BKN055 23/21 A2999 RMK AO2 SLP152 60007 T02280211 55007 $

More Conditions Fewer Conditions

Pressure 29.98 in
Visibility 10.0 miles
Clouds Scattered Clouds 4500 ft
Mostly Cloudy 5500 ft
Dew Point 70 °F
Humidity 90%
Rainfall 0.07 in
Snow Depth Not available.
UV 0 out of 12
Pollen Not available.
PM2.5 Good
Flu Activity Not available.
METAR PHTO 221453Z 27004KT 10SM SCT045 BKN055 23/21 A2999 RMK AO2 SLP152 60007 T02280211 55007 $

More Conditions Fewer Conditions

10-Day Weather Forecast

Almanac

Astronomy

Aug. 22, 2014 Rise Set
Actual Time 6:02 AM HST 6:43 PM HST
Civil Twilight 5:40 AM HST 7:05 PM HST
Nautical Twilight 5:13 AM HST 7:32 PM HST
Astronomical Twilight 4:46 AM HST 7:59 PM HST
Moon 3:44 AM HST 4:52 PM HST
Length of Visible Light 13h 25m
Length of Day
12h 40m
Tomorrow will be 1m 1s shorter.
Waning Crescent, 8% of the Moon is Illuminated
Today
Waning Crescent
Aug 25
New
Sep 2
First Quarter
Sep 8
Full
Sep 15
Last Quarter

Today's Extremes

State Highs State Lows

Community

WunderPhotos

Upload Photos

1,746,188 photos uploaded!

WunderBlogs® & News

Nearby

Air Quality

  Air Quality AQ Index Pollutant
Yesterday Good
PM2.5
Current Good
PM2.5

Snow Depth

Station Depth Elevation
No new snow has been reported.

Earthquake Activity

City Distance Mag. Time & Date
No recent earthquake activity has been reported nearby.
Minimum magnitude displayed is 2.5.

Coastal Water Temperatures

Place Temperature
No Stations Reporting

Nearby Weather Stations